Orbital elements of EKRAN 2 DEB
| Launched | 19 September 1977 |
| Flight ended | – |
| Launch site | Tyuratam Missile and Space Center, Kazakhstan (Also known as Baikonur Cosmodrome) |
| Owner | Commonwealth of Independent States (former USSR) |
| NORAD ID | 12996 |
| Date fetched |
Epoch osculation |
Inc. [°] |
Ecc. | RA asc node [hr] |
Arg Peri. [°] |
Mean anom [°] |
Mean motion [rev/day] |
Abs. mag |
| Date fetched |
Epoch osculation |
Inc. [°] |
Ecc. | RA asc node [hr] |
Arg Peri. [°] |
Mean anom [°] |
Mean motion [rev/day] |
Abs. mag |
| 2026 May 05 17:57 | 2026 May 05 07:54:06 | 4.4149 | 0.00128 | 18.3641 | 289.3683 | 106.0525 | 1.00053 | – |
| 2026 May 04 17:57 | 2026 Apr 30 08:08:07 | 4.4282 | 0.00126 | 18.3686 | 291.3764 | 106.0525 | 1.00053 | – |
| 2026 May 03 17:57 | 2026 Apr 30 08:08:07 | 4.4282 | 0.00126 | 18.3686 | 291.3764 | 106.0525 | 1.00053 | – |
| 2026 May 02 17:57 | 2026 Apr 30 08:08:07 | 4.4282 | 0.00126 | 18.3686 | 291.3764 | 106.0525 | 1.00053 | – |
| 2026 May 01 17:56 | 2026 Apr 30 08:08:07 | 4.4282 | 0.00126 | 18.3686 | 291.3764 | 106.0525 | 1.00053 | – |
| 2026 Apr 30 17:56 | 2026 Apr 30 08:08:07 | 4.4282 | 0.00126 | 18.3686 | 291.3764 | 106.0525 | 1.00053 | – |
| 2026 Apr 29 17:57 | 2026 Apr 24 06:42:10 | 4.4440 | 0.00125 | 18.3738 | 293.8179 | 106.0525 | 1.00053 | – |
| 2026 Apr 28 17:56 | 2026 Apr 24 06:42:10 | 4.4440 | 0.00125 | 18.3738 | 293.8179 | 106.0525 | 1.00053 | – |
| 2026 Apr 27 17:58 | 2026 Apr 24 06:42:10 | 4.4440 | 0.00125 | 18.3738 | 293.8179 | 106.0525 | 1.00053 | – |
| 2026 Apr 26 17:58 | 2026 Apr 24 06:42:10 | 4.4440 | 0.00125 | 18.3738 | 293.8179 | 106.0525 | 1.00053 | – |
| 2026 Apr 25 17:58 | 2026 Apr 24 06:42:10 | 4.4440 | 0.00125 | 18.3738 | 293.8179 | 106.0525 | 1.00053 | – |
| 2026 Apr 24 17:59 | 2026 Apr 24 06:42:10 | 4.4440 | 0.00125 | 18.3738 | 293.8179 | 106.0525 | 1.00053 | – |
| 2026 Apr 23 17:57 | 2026 Apr 19 08:38:42 | 4.4565 | 0.00125 | 18.3782 | 296.2402 | 106.0525 | 1.00053 | – |
| 2026 Apr 22 17:57 | 2026 Apr 19 08:38:42 | 4.4565 | 0.00125 | 18.3782 | 296.2402 | 106.0525 | 1.00053 | – |
| 2026 Apr 21 17:57 | 2026 Apr 19 08:38:42 | 4.4565 | 0.00125 | 18.3782 | 296.2402 | 106.0525 | 1.00053 | – |
| 2026 Apr 20 17:57 | 2026 Apr 19 08:38:42 | 4.4565 | 0.00125 | 18.3782 | 296.2402 | 106.0525 | 1.00053 | – |
| 2026 Apr 19 17:58 | 2026 Apr 19 08:38:42 | 4.4565 | 0.00125 | 18.3782 | 296.2402 | 106.0525 | 1.00053 | – |
| 2026 Apr 18 17:56 | 2026 Apr 12 20:56:41 | 4.4733 | 0.00127 | 18.3839 | 299.4820 | 106.0525 | 1.00053 | – |
| 2026 Apr 16 17:57 | 2026 Apr 12 20:56:41 | 4.4733 | 0.00127 | 18.3839 | 299.4820 | 106.0525 | 1.00053 | – |
| 2026 Apr 14 17:57 | 2026 Apr 12 20:56:41 | 4.4733 | 0.00127 | 18.3839 | 299.4820 | 106.0525 | 1.00053 | – |
| 2026 Apr 13 17:57 | 2026 Apr 12 20:56:41 | 4.4733 | 0.00127 | 18.3839 | 299.4820 | 106.0525 | 1.00053 | – |
| 2026 Apr 12 17:57 | 2026 Apr 08 09:08:54 | 4.4850 | 0.00128 | 18.3878 | 301.4695 | 106.0525 | 1.00053 | – |
| 2026 Apr 11 17:57 | 2026 Apr 08 09:08:54 | 4.4850 | 0.00128 | 18.3878 | 301.4695 | 106.0525 | 1.00053 | – |
| 2026 Apr 10 17:58 | 2026 Apr 08 09:08:54 | 4.4850 | 0.00128 | 18.3878 | 301.4695 | 106.0525 | 1.00053 | – |
| 2026 Apr 09 18:01 | 2026 Apr 08 09:08:54 | 4.4850 | 0.00128 | 18.3878 | 301.4695 | 106.0525 | 1.00053 | – |
| 2026 Apr 08 17:57 | 2026 Apr 08 09:08:54 | 4.4850 | 0.00128 | 18.3878 | 301.4695 | 106.0525 | 1.00053 | – |